Hammond, Minnesota
Current Conditions -  °F | °C
As of 1:54 AM on Thursday 23 Oct 2014 (Local Time) from K9MN Reporting Station
Overcast Overcast  
Wind Chill: 53°   Ceiling: 10000
Heat Index: 53°   Visibility: 10mi
Dew Point: 37°   Wind: 14mph
Humidity: 55%   Direction: 160°SSE
Pressure: 30.06"   Gusts: 22mph
Location:  44.2838°N, 92.3888°W
Report Text: K9MN 230654Z AUTO 16012G19KT 10SM SCT070 OVC100 12/03 A3006 RMK AO1 T01150027
Loading
Personal Weather Stations






























Interactive Weather Map
Tropical Storm Tracking
New forecast layout! Learn more

10-Day Weather Forecast

Advertisements
Track Severe Weather on mobile